ボゴタ の空港の天気 - METARとTAF

エルドラド国際空港(ボコダ) ( SKBO / BOG ) - コロンビア ボゴタ
飛行場実況気象(Metar)
観測時間02/17 18:00 COT (02/17 23:00 UTC)
風向・風速南西 4m/s
視程10km以上
天気現象周辺でしゅう雨
全天の8割程度の雲 雲底高度 610m
全天の4割程度の雲 雲底高度 2440m
気温17℃
湿度68%
気圧1026hPa
METARSKBO 172300Z 23007KT 9999 VCSH BKN020 SCT080 17/11 A3029 RMK VCSH/NE/E
過去の天気等 Google飛行場航空写真 Wunderground天気予報

過去48時間のMETAR

飛行場予報(TAF)
発表時間: 2/17 12:00 COT (2/17 17:00 UTC)
予報対象時間: 17日13時 COT ~ 18日13時 COT
風向・風速西 6m/s
視程10km以上
少しの雲 雲底高度 610m
全天の4割程度の雲 雲底高度 2740m
17日14時 COT ~ 17日17時 COT に 確率 40% で一時的に
視程7000m
天気現象霧雨
全天の4割程度の塔状積雲 雲底高度 460m
全天の8割程度の雲 雲底高度 2440m
17日20時 COT ~ 17日22時 COT に徐々に
風向・風速不定 1m/s
TAF SKBO 171700Z 1718/1818 28012KT 9999 FEW020 SCT090
PROB40 TEMPO 1719/1722 7000 DZ SCT015TCU BKN080
BECMG 1801/1803 VRB02KT TX22/1718Z TN09/1810Z